»·PEaware :: N51254 KVNY-KSNA

N51254 :: KVNY-KSNA

FLIGHT INFORMATION

Flight Status: Arrived
Operator: Privately registered:
United States
More flights under this callsign
Pilot: Hasan B. (9605)
Aircraft: CESSNA 172 SKYHAWK
(C172)
More flights by this aircraft type
Origin: KVNY Van Nuys
United States
Destination: KSNA John Wayne-Orange Co
United States
More flights between these airports :: More routes between these airports
Route: +
File this flight plan on PilotEdge
Remarks:
Altitude:
(Current/Filed)
5,500ft
Speed:
(Current/Filed)
0kts
Departed: 09-Oct-18 12:21 PM
Arrived: 09-Oct-18 01:42 PM
Distance/Time
Traveled:
44nm/1:21
Distance/Time
To Go:
Arrived

Flight Plot

Page will automatically refresh every two minutes.


Map Options




Map Legend


Flown Route
Filed Route
Departure Airport
Arrival Airport
Navaid (VOR, NDB)
Fix

Horizontal Profiles

Position Reports

Time Latitude Longitude Heading Altitude Ground
Speed
09-Oct-18 12:17 34.219336 -118.494312 175 806ft 0kts
09-Oct-18 12:18 34.219336 -118.494312 175 806ft 0kts
09-Oct-18 12:19 34.218915 -118.494109 102 806ft 8kts
09-Oct-18 12:20 34.218717 -118.492469 106 806ft 10kts
09-Oct-18 12:21 34.218703 -118.492275 80 806ft 0kts
09-Oct-18 12:22 34.218703 -118.492275 80 806ft 0kts
09-Oct-18 12:23 34.216965 -118.491037 175 806ft 52kts
09-Oct-18 12:24 34.204094 -118.489598 173 1168ft 82kts
09-Oct-18 12:25 34.188570 -118.486952 173 1746ft 82kts
09-Oct-18 12:26 34.172499 -118.485070 176 2266ft 88kts
09-Oct-18 12:27 34.155383 -118.486185 192 2826ft 87kts
09-Oct-18 12:28 34.139194 -118.489628 183 3316ft 88kts
09-Oct-18 12:29 34.124284 -118.498386 272 3778ft 90kts
09-Oct-18 12:30 34.126918 -118.517931 281 4319ft 83kts
09-Oct-18 12:31 34.132986 -118.535265 304 4787ft 79kts
09-Oct-18 12:32 34.142256 -118.548036 7 5219ft 78kts
09-Oct-18 12:33 34.138527 -118.536596 147 5493ft 89kts
09-Oct-18 12:34 34.124798 -118.524338 143 5534ft 95kts
09-Oct-18 12:35 34.111007 -118.513156 155 5591ft 92kts
09-Oct-18 12:36 34.093777 -118.507101 167 5610ft 94kts
09-Oct-18 12:37 34.076548 -118.500899 164 5599ft 98kts
09-Oct-18 12:38 34.058516 -118.495249 155 5617ft 96kts
09-Oct-18 12:39 34.043022 -118.485568 151 5615ft 98kts
09-Oct-18 12:40 34.027850 -118.476742 160 5591ft 100kts
09-Oct-18 12:41 34.010147 -118.468938 158 5589ft 99kts
09-Oct-18 12:42 33.992702 -118.460569 156 5582ft 99kts
09-Oct-18 12:43 33.976032 -118.452668 160 5577ft 99kts
09-Oct-18 12:44 33.960036 -118.444304 157 5571ft 99kts
09-Oct-18 12:45 33.942347 -118.436459 154 5564ft 99kts
09-Oct-18 12:46 33.928797 -118.423480 132 5564ft 99kts
09-Oct-18 12:47 33.916119 -118.411260 151 5523ft 102kts
09-Oct-18 12:48 33.903203 -118.398576 138 5537ft 99kts
09-Oct-18 12:49 33.891485 -118.386828 140 5546ft 98kts
09-Oct-18 12:50 33.879705 -118.374691 135 5553ft 98kts
09-Oct-18 13:02 33.906222 -118.405511 138 5460ft 99kts
09-Oct-18 13:11 33.910107 -118.409501 137 5379ft 95kts
09-Oct-18 13:12 33.900056 -118.400496 147 5410ft 95kts
09-Oct-18 13:13 33.885878 -118.390070 150 5445ft 93kts
09-Oct-18 13:14 33.871103 -118.380567 149 5487ft 91kts
09-Oct-18 13:15 33.862625 -118.367006 104 5508ft 93kts
09-Oct-18 13:16 33.855478 -118.350844 127 5535ft 91kts
09-Oct-18 13:17 33.843560 -118.336850 143 5511ft 95kts
09-Oct-18 13:18 33.829521 -118.326236 144 5572ft 92kts
09-Oct-18 13:19 33.816809 -118.313076 133 5605ft 92kts
09-Oct-18 13:20 33.805357 -118.298801 133 5636ft 92kts
09-Oct-18 13:21 33.792441 -118.284611 143 5643ft 94kts
09-Oct-18 13:22 33.777358 -118.271903 141 5644ft 96kts
09-Oct-18 13:23 33.763084 -118.256846 137 5522ft 99kts
09-Oct-18 13:24 33.750511 -118.241699 112 5143ft 98kts
09-Oct-18 13:25 33.744067 -118.222523 116 4734ft 100kts
09-Oct-18 13:26 33.735938 -118.203355 114 4383ft 94kts
09-Oct-18 13:27 33.728916 -118.181753 113 3988ft 94kts
09-Oct-18 13:28 33.713052 -118.145147 120 3358ft 92kts
09-Oct-18 13:29 33.696431 -118.108428 116 2710ft 92kts
09-Oct-18 13:30 33.676713 -118.057845 114 2064ft 93kts
09-Oct-18 13:31 33.668895 -118.039108 118 2166ft 96kts
09-Oct-18 13:32 33.661516 -118.019764 112 2148ft 100kts
09-Oct-18 13:33 33.655912 -118.001031 98 2105ft 97kts
09-Oct-18 13:34 33.661886 -117.982331 61 2055ft 98kts
09-Oct-18 13:35 33.673242 -117.950428 77 2042ft 96kts
09-Oct-18 13:36 33.675556 -117.930374 83 1825ft 98kts
09-Oct-18 13:37 33.676293 -117.913475 89 1445ft 101kts
09-Oct-18 13:38 33.676244 -117.896750 86 1153ft 99kts
09-Oct-18 13:39 33.681473 -117.883114 19 1104ft 95kts
09-Oct-18 13:40 33.693757 -117.876699 29 1095ft 78kts
09-Oct-18 13:41 33.700414 -117.868131 107 835ft 71kts
09-Oct-18 13:42 33.692492 -117.861824 168 508ft 69kts
09-Oct-18 13:43 33.683327 -117.863985 209 145ft 64kts
09-Oct-18 13:44 33.678451 -117.867095 208 60ft 16kts
09-Oct-18 13:45 33.678096 -117.868387 291 60ft 1kts
09-Oct-18 13:46 33.676406 -117.869842 209 60ft 10kts
09-Oct-18 13:47 33.675860 -117.871090 201 60ft 3kts
09-Oct-18 13:48 33.675820 -117.871117 209 60ft 0kts

Navigation Log

Ident Type
1. KVNY Airport
2. KSNA Airport